createdAt,value
2023-02-06T00:01:53.768Z,-3.08
2023-02-06T00:04:20.595Z,-3.13
2023-02-06T00:06:47.327Z,-3.19
2023-02-06T00:09:14.675Z,-3.24
2023-02-06T00:11:41.486Z,-3.31
2023-02-06T00:14:08.274Z,-3.39
2023-02-06T00:16:35.806Z,-3.43
2023-02-06T00:19:03.202Z,-3.46
2023-02-06T00:21:30.861Z,-3.40
2023-02-06T00:23:59.702Z,-3.36
2023-02-06T00:26:27.225Z,-3.37
2023-02-06T00:28:54.560Z,-3.40
2023-02-06T00:31:21.894Z,-3.48
2023-02-06T00:33:48.892Z,-3.51
2023-02-06T00:36:15.721Z,-3.56
2023-02-06T00:38:42.694Z,-3.61
2023-02-06T00:41:09.621Z,-3.58
2023-02-06T00:43:36.616Z,-3.56
2023-02-06T00:46:03.786Z,-3.34
2023-02-06T00:48:30.579Z,-3.23
2023-02-06T00:50:57.617Z,-3.20
2023-02-06T00:53:24.457Z,-3.17
2023-02-06T00:55:51.865Z,-3.11
2023-02-06T00:58:18.593Z,-3.05
2023-02-06T01:00:45.585Z,-3.02
2023-02-06T01:03:12.689Z,-3.01
2023-02-06T01:05:39.652Z,-2.92
2023-02-06T01:08:06.446Z,-2.84
2023-02-06T01:10:33.235Z,-2.78
2023-02-06T01:13:00.695Z,-2.75
2023-02-06T01:15:27.598Z,-2.79
2023-02-06T01:17:54.306Z,-2.87
2023-02-06T01:20:21.773Z,-2.94
2023-02-06T01:22:48.649Z,-3.03
2023-02-06T01:25:15.562Z,-3.10
2023-02-06T01:27:42.433Z,-3.16
2023-02-06T01:30:10.208Z,-3.20
2023-02-06T01:32:41.677Z,-3.22
2023-02-06T01:35:10.325Z,-3.22
2023-02-06T01:37:38.014Z,-3.20
2023-02-06T01:40:09.993Z,-3.13
2023-02-06T01:42:38.031Z,-3.06
2023-02-06T01:45:35.312Z,-2.98
2023-02-06T01:48:07.589Z,-2.92
2023-02-06T01:50:37.302Z,-2.91
2023-02-06T01:53:06.381Z,-2.93
2023-02-06T01:55:36.153Z,-2.95
2023-02-06T01:58:05.006Z,-2.95
2023-02-06T02:00:32.102Z,-2.98
2023-02-06T02:02:58.944Z,-3.03
2023-02-06T02:05:25.863Z,-3.04
2023-02-06T02:08:04.497Z,-3.07
2023-02-06T02:10:35.267Z,-3.09
2023-02-06T02:13:02.059Z,-3.16
2023-02-06T02:15:46.647Z,-3.22
2023-02-06T02:18:22.388Z,-3.22
2023-02-06T02:21:00.817Z,-3.24
2023-02-06T02:23:53.293Z,-3.27
2023-02-06T02:26:38.555Z,-3.33
2023-02-06T02:29:35.891Z,-3.40
2023-02-06T02:32:23.953Z,-3.46
2023-02-06T02:35:02.964Z,-3.52
2023-02-06T02:38:17.741Z,-3.52
2023-02-06T02:40:51.058Z,-3.54
2023-02-06T02:43:31.195Z,-3.56
2023-02-06T02:46:13.435Z,-3.56
2023-02-06T02:48:48.495Z,-3.53
2023-02-06T02:51:16.940Z,-3.50
2023-02-06T02:53:43.819Z,-3.54
2023-02-06T02:56:23.021Z,-3.60
2023-02-06T02:58:56.135Z,-3.68
2023-02-06T03:01:28.935Z,-3.69
2023-02-06T03:04:00.886Z,-3.70
2023-02-06T03:06:57.147Z,-3.70
2023-02-06T03:09:23.906Z,-3.72
2023-02-06T03:12:20.534Z,-3.66
2023-02-06T03:15:03.798Z,-3.60
2023-02-06T03:18:07.164Z,-3.48
2023-02-06T03:20:37.834Z,-3.39
2023-02-06T03:23:08.196Z,-3.34
2023-02-06T03:25:43.041Z,-3.28
2023-02-06T03:28:27.351Z,-3.26
2023-02-06T03:30:58.259Z,-3.23
2023-02-06T03:33:31.505Z,-3.20
2023-02-06T03:35:59.018Z,-3.16
2023-02-06T03:38:27.824Z,-3.17
2023-02-06T03:40:57.426Z,-3.15
2023-02-06T03:43:25.913Z,-3.10
2023-02-06T03:46:00.395Z,-3.03
2023-02-06T03:48:34.120Z,-2.98
2023-02-06T03:51:06.952Z,-2.93
2023-02-06T03:53:35.772Z,-2.93
2023-02-06T03:56:13.036Z,-2.93
2023-02-06T03:58:39.889Z,-2.93
2023-02-06T04:01:07.643Z,-2.93
2023-02-06T04:03:34.596Z,-2.94
2023-02-06T04:06:01.807Z,-2.93
2023-02-06T04:08:28.541Z,-2.96
2023-02-06T04:10:55.413Z,-2.98
2023-02-06T04:13:22.168Z,-3.01
2023-02-06T04:15:49.703Z,-3.04
2023-02-06T04:18:16.460Z,-3.06
2023-02-06T04:20:43.204Z,-3.04
2023-02-06T04:23:09.954Z,-3.05
2023-02-06T04:25:36.963Z,-3.11
2023-02-06T04:28:04.103Z,-3.18
2023-02-06T04:30:31.001Z,-3.15
2023-02-06T04:32:57.740Z,-3.20
2023-02-06T04:35:24.569Z,-3.27
2023-02-06T04:37:51.428Z,-3.27
2023-02-06T04:40:18.410Z,-3.33
2023-02-06T04:42:45.248Z,-3.41
2023-02-06T04:45:12.469Z,-3.50
2023-02-06T04:47:39.281Z,-3.51
2023-02-06T04:50:06.649Z,-3.48
2023-02-06T04:52:33.506Z,-3.47
2023-02-06T04:55:00.287Z,-3.46
2023-02-06T04:57:27.172Z,-3.46
2023-02-06T04:59:53.913Z,-3.43
2023-02-06T05:02:20.821Z,-3.39
2023-02-06T05:04:47.569Z,-3.36
2023-02-06T05:07:14.268Z,-3.34
2023-02-06T05:09:41.003Z,-3.26
2023-02-06T05:12:07.875Z,-3.21
2023-02-06T05:14:34.623Z,-3.19
2023-02-06T05:17:01.424Z,-3.20
2023-02-06T05:19:28.284Z,-3.33
2023-02-06T05:21:55.115Z,-3.42
2023-02-06T05:24:21.854Z,-3.46
2023-02-06T05:26:48.599Z,-3.50
2023-02-06T05:29:15.378Z,-3.48
2023-02-06T05:31:42.167Z,-3.45
2023-02-06T05:34:10.042Z,-3.35
2023-02-06T05:36:36.777Z,-3.15
2023-02-06T05:39:04.727Z,-2.92
2023-02-06T05:41:31.706Z,-2.66
2023-02-06T05:43:58.486Z,-2.48
2023-02-06T05:46:25.644Z,-2.38
2023-02-06T05:48:52.511Z,-2.36
2023-02-06T05:51:19.281Z,-2.35
2023-02-06T05:53:46.085Z,-2.28
2023-02-06T05:56:12.815Z,-2.16
2023-02-06T05:58:39.705Z,-2.03
2023-02-06T06:01:06.503Z,-1.91
2023-02-06T06:03:33.569Z,-1.83
2023-02-06T06:06:00.638Z,-1.97
2023-02-06T06:08:27.397Z,-2.05
2023-02-06T06:10:54.263Z,-2.03
2023-02-06T06:13:21.070Z,-1.99
2023-02-06T06:15:53.925Z,-1.93
2023-02-06T06:18:21.713Z,-1.86
2023-02-06T06:20:49.349Z,-1.84
2023-02-06T06:23:16.464Z,-1.74
2023-02-06T06:25:43.850Z,-1.63
2023-02-06T06:28:10.730Z,-1.62
2023-02-06T06:30:37.831Z,-1.53
2023-02-06T06:33:04.781Z,-1.36
2023-02-06T06:35:31.659Z,-1.31
2023-02-06T06:37:58.459Z,-1.27
2023-02-06T06:40:25.243Z,-1.09
2023-02-06T06:42:52.033Z,-0.93
2023-02-06T06:45:18.974Z,-0.90
2023-02-06T06:47:45.760Z,-0.85
2023-02-06T06:50:12.500Z,-0.77
2023-02-06T06:52:39.307Z,-0.69
2023-02-06T06:55:06.477Z,-0.86
2023-02-06T06:57:33.678Z,-1.01
2023-02-06T07:00:00.395Z,-1.26
2023-02-06T07:02:28.678Z,-1.78
2023-02-06T07:04:55.890Z,-1.88
2023-02-06T07:07:22.824Z,-2.17
2023-02-06T07:09:49.574Z,-2.08
2023-02-06T07:12:16.425Z,-2.23
2023-02-06T07:14:43.198Z,-2.20
2023-02-06T07:17:10.049Z,-1.89
2023-02-06T07:19:36.791Z,-1.67
2023-02-06T07:22:03.580Z,-1.45
2023-02-06T07:24:30.509Z,-1.21
2023-02-06T07:26:57.872Z,-0.98
2023-02-06T07:29:25.558Z,-0.72
2023-02-06T07:31:52.683Z,-0.56
2023-02-06T07:34:19.475Z,-0.41
2023-02-06T07:36:46.273Z,-0.21
2023-02-06T07:39:13.104Z,-0.19
2023-02-06T07:41:39.972Z,-0.81
2023-02-06T07:44:07.084Z,-0.66
2023-02-06T07:46:34.708Z,-0.66
2023-02-06T07:49:01.610Z,-0.47
2023-02-06T07:51:28.806Z,-0.41
2023-02-06T07:53:55.610Z,-0.32
2023-02-06T07:56:25.392Z,-0.15
2023-02-06T07:58:54.302Z,-0.08
2023-02-06T08:01:22.554Z,-0.03
2023-02-06T08:03:50.575Z,0.29
2023-02-06T08:06:17.639Z,0.42
2023-02-06T08:08:44.935Z,0.73
2023-02-06T08:11:16.878Z,0.83
2023-02-06T08:13:43.893Z,0.96
2023-02-06T08:16:13.448Z,1.13
2023-02-06T08:18:41.055Z,0.89
2023-02-06T08:21:16.967Z,1.10
2023-02-06T08:23:44.084Z,1.16
2023-02-06T08:26:15.911Z,1.24
2023-02-06T08:28:43.964Z,1.13
2023-02-06T08:31:31.604Z,1.01
2023-02-06T08:33:58.921Z,1.04
2023-02-06T08:36:26.868Z,0.78
2023-02-06T08:38:54.021Z,0.95
2023-02-06T08:41:28.986Z,1.01
2023-02-06T08:43:58.257Z,1.18
2023-02-06T08:46:28.282Z,1.08
2023-02-06T08:48:56.690Z,1.20
2023-02-06T08:51:27.784Z,1.08
2023-02-06T08:54:02.746Z,1.05
2023-02-06T08:56:31.311Z,1.07
2023-02-06T08:59:01.709Z,1.29
2023-02-06T09:01:31.088Z,1.45
2023-02-06T09:04:01.096Z,1.75
2023-02-06T09:06:28.627Z,1.67
2023-02-06T09:08:56.779Z,2.08
2023-02-06T09:11:25.066Z,2.12
2023-02-06T09:13:54.325Z,1.99
2023-02-06T09:16:21.633Z,1.52
2023-02-06T09:18:49.997Z,1.54
2023-02-06T09:21:20.277Z,1.22
2023-02-06T09:23:53.050Z,1.18
2023-02-06T09:26:25.462Z,0.54
2023-02-06T09:28:54.050Z,0.21
2023-02-06T09:31:21.160Z,0.40
2023-02-06T09:33:47.915Z,0.38
2023-02-06T09:36:17.274Z,0.30
2023-02-06T09:38:46.869Z,0.48
2023-02-06T09:41:28.567Z,0.44
2023-02-06T09:44:00.765Z,0.55
2023-02-06T09:46:32.510Z,0.40
2023-02-06T09:49:05.923Z,0.62
2023-02-06T09:51:47.307Z,0.43
2023-02-06T09:54:25.030Z,1.11
2023-02-06T09:57:06.984Z,1.73
2023-02-06T09:59:49.462Z,2.34
2023-02-06T10:02:42.066Z,2.56
2023-02-06T10:05:51.463Z,3.03
2023-02-06T10:08:28.331Z,3.33
2023-02-06T10:11:01.635Z,3.72
2023-02-06T10:13:49.742Z,3.78
2023-02-06T10:16:32.070Z,3.67
2023-02-06T10:19:38.876Z,3.10
2023-02-06T10:22:13.851Z,3.03
2023-02-06T10:24:47.465Z,3.17
2023-02-06T10:27:15.306Z,3.30
2023-02-06T10:29:44.525Z,3.11
2023-02-06T10:32:14.194Z,2.69
2023-02-06T10:35:02.073Z,1.87
2023-02-06T10:37:50.093Z,1.13
2023-02-06T10:40:35.043Z,0.40
2023-02-06T10:43:16.842Z,0.02
2023-02-06T10:46:11.018Z,0.31
2023-02-06T10:48:54.501Z,0.18
2023-02-06T10:51:36.608Z,0.44
2023-02-06T10:54:11.001Z,0.09
2023-02-06T10:56:44.422Z,-0.02
2023-02-06T10:59:22.668Z,-0.19
2023-02-06T11:01:54.461Z,-0.07
2023-02-06T11:04:44.566Z,-0.09
2023-02-06T11:07:29.778Z,-0.05
2023-02-06T11:09:56.715Z,-0.25
2023-02-06T11:12:37.434Z,-0.08
2023-02-06T11:15:16.570Z,0.09
2023-02-06T11:17:45.260Z,0.17
2023-02-06T11:20:23.018Z,0.32
2023-02-06T11:22:53.506Z,0.64
2023-02-06T11:25:31.447Z,0.81
2023-02-06T11:28:00.188Z,1.06
2023-02-06T11:31:00.141Z,0.72
2023-02-06T11:33:33.460Z,0.63
2023-02-06T11:36:01.297Z,0.58
2023-02-06T11:38:30.351Z,0.62
2023-02-06T11:41:00.790Z,0.47
2023-02-06T11:43:51.733Z,0.39
2023-02-06T11:46:27.812Z,0.45
2023-02-06T11:48:54.537Z,0.58
2023-02-06T11:51:22.169Z,0.77
2023-02-06T11:53:56.851Z,1.08
2023-02-06T11:56:24.102Z,1.38
2023-02-06T11:59:19.153Z,1.19
2023-02-06T12:01:47.686Z,0.77
2023-02-06T12:04:23.646Z,0.40
2023-02-06T12:07:18.693Z,0.47
2023-02-06T12:09:45.567Z,0.55
2023-02-06T12:12:32.770Z,0.45
2023-02-06T12:15:43.662Z,0.67
2023-02-06T12:18:13.187Z,0.74
2023-02-06T12:20:49.416Z,0.77
2023-02-06T12:23:32.590Z,0.87
2023-02-06T12:26:02.599Z,0.68
2023-02-06T12:28:32.603Z,0.75
2023-02-06T12:31:09.296Z,0.55
2023-02-06T12:33:55.316Z,0.83
2023-02-06T12:36:27.903Z,1.11
2023-02-06T12:39:03.612Z,1.26
2023-02-06T12:41:45.502Z,1.42
2023-02-06T12:44:28.053Z,1.29
2023-02-06T12:47:04.846Z,1.27
2023-02-06T12:49:48.675Z,1.38
2023-02-06T12:52:26.002Z,1.39
2023-02-06T12:55:21.608Z,1.68
2023-02-06T12:57:48.530Z,1.96
2023-02-06T13:00:45.014Z,1.86
2023-02-06T13:03:28.287Z,1.71
2023-02-06T13:06:03.065Z,1.88
2023-02-06T13:08:45.052Z,1.84
2023-02-06T13:11:24.468Z,1.88
2023-02-06T13:14:00.770Z,1.99
2023-02-06T13:16:42.461Z,2.51
2023-02-06T13:19:21.808Z,2.73
2023-02-06T13:22:16.763Z,2.99
2023-02-06T13:24:46.285Z,2.76
2023-02-06T13:27:25.239Z,2.65
2023-02-06T13:29:54.104Z,3.06
2023-02-06T13:32:24.192Z,3.46
2023-02-06T13:35:02.258Z,3.69
2023-02-06T13:37:48.167Z,3.64
2023-02-06T13:40:24.265Z,3.47
2023-02-06T13:43:02.844Z,3.24
2023-02-06T13:45:40.308Z,3.26
2023-02-06T13:48:38.138Z,2.97
2023-02-06T13:51:29.811Z,1.87
2023-02-06T13:54:18.052Z,2.00
2023-02-06T13:56:52.379Z,2.03
2023-02-06T13:59:31.951Z,2.09
2023-02-06T14:02:08.792Z,2.14
2023-02-06T14:04:37.212Z,1.37
2023-02-06T14:07:33.352Z,1.43
2023-02-06T14:10:25.509Z,1.08
2023-02-06T14:13:03.055Z,1.06
2023-02-06T14:15:53.242Z,1.18
2023-02-06T14:18:41.526Z,0.97
2023-02-06T14:21:31.903Z,0.95
2023-02-06T14:24:07.194Z,0.61
2023-02-06T14:26:39.509Z,0.35
2023-02-06T14:29:40.032Z,0.33
2023-02-06T14:32:33.141Z,-0.13
2023-02-06T14:35:05.866Z,-0.00
2023-02-06T14:38:13.984Z,0.08
2023-02-06T14:40:42.772Z,0.04
2023-02-06T14:43:20.083Z,0.03
2023-02-06T14:46:06.177Z,-0.06
2023-02-06T14:48:43.104Z,-0.10
2023-02-06T14:51:31.450Z,-0.02
2023-02-06T14:54:04.283Z,-0.08
2023-02-06T14:56:38.897Z,-0.25
2023-02-06T14:59:16.342Z,-0.28
2023-02-06T15:01:49.100Z,-0.29
2023-02-06T15:04:24.406Z,-0.36
2023-02-06T15:06:57.280Z,-0.24
2023-02-06T15:09:33.397Z,-0.23
2023-02-06T15:12:03.106Z,-0.25
2023-02-06T15:14:32.808Z,-0.23
2023-02-06T15:17:01.000Z,-0.25
2023-02-06T15:19:30.749Z,-0.39
2023-02-06T15:22:07.194Z,-0.46
2023-02-06T15:25:05.139Z,-0.58
2023-02-06T15:27:34.470Z,-0.68
2023-02-06T15:30:09.473Z,-0.69
2023-02-06T15:32:39.128Z,-0.74
2023-02-06T15:35:30.363Z,-0.74
2023-02-06T15:38:05.111Z,-0.81
2023-02-06T15:40:39.037Z,-0.82
2023-02-06T15:43:06.801Z,-0.90
2023-02-06T15:45:37.324Z,-0.97
2023-02-06T15:48:21.235Z,-1.01
2023-02-06T15:51:21.987Z,-0.96
2023-02-06T15:54:07.934Z,-0.96
2023-02-06T15:56:42.239Z,-0.93
2023-02-06T15:59:20.934Z,-0.88
2023-02-06T16:01:48.954Z,-0.84
2023-02-06T16:04:28.631Z,-0.82
2023-02-06T16:07:21.682Z,-0.79
2023-02-06T16:10:13.682Z,-0.75
2023-02-06T16:12:43.364Z,-0.72
2023-02-06T16:15:31.023Z,-0.69
2023-02-06T16:18:02.294Z,-0.67
2023-02-06T16:20:32.356Z,-0.65
2023-02-06T16:23:31.008Z,-0.62
2023-02-06T16:26:03.406Z,-0.59
2023-02-06T16:28:30.319Z,-0.55
2023-02-06T16:31:00.671Z,-0.54
2023-02-06T16:33:33.150Z,-0.51
2023-02-06T16:36:00.158Z,-0.51
2023-02-06T16:38:26.998Z,-0.53
2023-02-06T16:40:54.426Z,-0.56
2023-02-06T16:43:21.639Z,-0.56
2023-02-06T16:45:49.958Z,-0.53
2023-02-06T16:48:17.691Z,-0.49
2023-02-06T16:50:47.033Z,-0.46
2023-02-06T16:53:32.309Z,-0.41
2023-02-06T16:55:59.310Z,-0.39
2023-02-06T16:58:28.519Z,-0.37
2023-02-06T17:00:55.387Z,-0.36
2023-02-06T17:03:22.204Z,-0.32
2023-02-06T17:05:50.417Z,-0.32
2023-02-06T17:08:20.506Z,-0.30
2023-02-06T17:10:47.962Z,-0.29
2023-02-06T17:13:23.528Z,-0.29
2023-02-06T17:15:53.169Z,-0.27
2023-02-06T17:18:22.225Z,-0.26
2023-02-06T17:20:52.860Z,-0.24
2023-02-06T17:23:20.520Z,-0.24
2023-02-06T17:25:47.645Z,-0.22
2023-02-06T17:28:19.413Z,-0.20
2023-02-06T17:30:46.529Z,-0.21
2023-02-06T17:33:13.626Z,-0.19
2023-02-06T17:35:40.645Z,-0.19
2023-02-06T17:38:09.159Z,-0.19
2023-02-06T17:40:37.995Z,-0.17
2023-02-06T17:43:07.046Z,-0.22
2023-02-06T17:45:37.227Z,-0.20
2023-02-06T17:48:04.580Z,-0.17
2023-02-06T17:50:31.771Z,-0.17
2023-02-06T17:53:00.309Z,-0.19
2023-02-06T17:55:27.895Z,-0.21
2023-02-06T17:57:55.315Z,-0.25
2023-02-06T18:00:26.179Z,-0.30
2023-02-06T18:02:54.768Z,-0.31
2023-02-06T18:05:22.981Z,-0.29
2023-02-06T18:07:50.759Z,-0.30
2023-02-06T18:10:19.505Z,-0.30
2023-02-06T18:12:46.816Z,-0.31
2023-02-06T18:15:14.222Z,-0.34
2023-02-06T18:17:41.849Z,-0.39
2023-02-06T18:20:10.001Z,-0.38
2023-02-06T18:22:47.060Z,-0.42
2023-02-06T18:25:15.298Z,-0.52
2023-02-06T18:27:45.075Z,-0.64
2023-02-06T18:30:12.708Z,-0.65
2023-02-06T18:32:39.639Z,-0.76
2023-02-06T18:35:08.356Z,-0.80
2023-02-06T18:37:35.795Z,-0.83
2023-02-06T18:40:02.878Z,-0.85
2023-02-06T18:42:48.439Z,-0.82
2023-02-06T18:45:15.189Z,-0.88
2023-02-06T18:47:42.429Z,-0.94
2023-02-06T18:50:11.385Z,-0.82
2023-02-06T18:52:39.457Z,-0.67
2023-02-06T18:55:11.067Z,-0.51
2023-02-06T18:57:38.396Z,-0.32
2023-02-06T19:00:06.556Z,-0.13
2023-02-06T19:02:33.371Z,0.04
2023-02-06T19:05:00.199Z,0.20
2023-02-06T19:07:27.658Z,0.34
2023-02-06T19:10:00.321Z,0.44
2023-02-06T19:12:28.606Z,0.52
2023-02-06T19:14:59.798Z,0.60
2023-02-06T19:17:27.852Z,0.65
2023-02-06T19:19:54.810Z,0.68
2023-02-06T19:22:21.888Z,0.66
2023-02-06T19:24:51.169Z,0.64
2023-02-06T19:27:19.128Z,0.62
2023-02-06T19:29:46.598Z,0.62
2023-02-06T19:32:13.566Z,0.61
2023-02-06T19:34:41.168Z,0.61
2023-02-06T19:37:09.853Z,0.61
2023-02-06T19:39:40.128Z,0.62
2023-02-06T19:42:15.608Z,0.60
2023-02-06T19:44:43.467Z,0.59
2023-02-06T19:47:10.514Z,0.55
2023-02-06T19:49:37.973Z,0.57
2023-02-06T19:52:04.780Z,0.51
2023-02-06T19:54:31.702Z,0.48
2023-02-06T19:57:00.650Z,0.45
2023-02-06T19:59:28.562Z,0.42
2023-02-06T20:01:58.880Z,0.37
2023-02-06T20:04:32.533Z,0.32
2023-02-06T20:06:59.962Z,0.31
2023-02-06T20:09:28.320Z,0.29
2023-02-06T20:11:55.638Z,0.27
2023-02-06T20:14:23.525Z,0.28
2023-02-06T20:16:50.515Z,0.24
2023-02-06T20:19:20.975Z,0.21
2023-02-06T20:21:50.488Z,0.14
2023-02-06T20:24:21.995Z,0.01
2023-02-06T20:26:55.367Z,-0.06
2023-02-06T20:29:28.925Z,-0.09
2023-02-06T20:31:56.712Z,-0.08
2023-02-06T20:34:27.203Z,-0.08
2023-02-06T20:36:55.543Z,-0.08
2023-02-06T20:39:23.690Z,-0.11
2023-02-06T20:41:51.175Z,-0.10
2023-02-06T20:44:19.536Z,-0.12
2023-02-06T20:46:46.980Z,-0.21
2023-02-06T20:49:19.410Z,-0.29
2023-02-06T20:51:46.556Z,-0.34
2023-02-06T20:54:13.525Z,-0.39
2023-02-06T20:56:41.214Z,-0.42
2023-02-06T20:59:12.313Z,-0.43
2023-02-06T21:01:40.060Z,-0.43
2023-02-06T21:04:09.210Z,-0.42
2023-02-06T21:06:38.275Z,-0.43
2023-02-06T21:09:07.093Z,-0.44
2023-02-06T21:11:46.593Z,-0.49
2023-02-06T21:14:14.624Z,-0.47
2023-02-06T21:16:42.469Z,-0.51
2023-02-06T21:19:11.634Z,-0.51
2023-02-06T21:21:39.150Z,-0.56
2023-02-06T21:24:06.360Z,-0.59
2023-02-06T21:26:33.918Z,-0.60
2023-02-06T21:29:02.519Z,-0.65
2023-02-06T21:31:37.743Z,-0.66
2023-02-06T21:34:12.965Z,-0.67
2023-02-06T21:36:40.327Z,-0.68
2023-02-06T21:39:07.811Z,-0.69
2023-02-06T21:41:35.741Z,-0.68
2023-02-06T21:44:02.857Z,-0.67
2023-02-06T21:46:31.028Z,-0.67
2023-02-06T21:48:59.077Z,-0.67
2023-02-06T21:51:26.243Z,-0.69
2023-02-06T21:53:53.045Z,-0.69
2023-02-06T21:56:26.375Z,-0.73
2023-02-06T21:58:53.665Z,-0.72
2023-02-06T22:01:26.171Z,-0.75
2023-02-06T22:03:53.759Z,-0.79
2023-02-06T22:06:21.318Z,-0.77
2023-02-06T22:08:51.937Z,-0.80
2023-02-06T22:11:21.504Z,-0.80
2023-02-06T22:13:49.216Z,-0.79
2023-02-06T22:16:20.202Z,-0.77
2023-02-06T22:18:47.086Z,-0.75
2023-02-06T22:21:22.948Z,-0.75
2023-02-06T22:23:50.981Z,-0.72
2023-02-06T22:26:20.186Z,-0.69
2023-02-06T22:28:47.568Z,-0.66
2023-02-06T22:31:17.721Z,-0.62
2023-02-06T22:33:45.433Z,-0.60
2023-02-06T22:36:15.851Z,-0.60
2023-02-06T22:38:45.998Z,-0.64
2023-02-06T22:41:16.002Z,-0.65
2023-02-06T22:43:44.782Z,-0.67
2023-02-06T22:46:19.233Z,-0.72
2023-02-06T22:48:46.657Z,-0.73
2023-02-06T22:51:14.600Z,-0.77
2023-02-06T22:53:42.209Z,-0.79
2023-02-06T22:56:50.560Z,-0.83
2023-02-06T22:59:25.413Z,-0.89
2023-02-06T23:01:59.520Z,-0.96
2023-02-06T23:04:35.398Z,-1.02
2023-02-06T23:07:04.064Z,-1.10
2023-02-06T23:09:34.600Z,-1.12
2023-02-06T23:12:03.447Z,-1.13
2023-02-06T23:14:32.604Z,-1.14
2023-02-06T23:17:04.929Z,-1.14
2023-02-06T23:19:38.701Z,-1.16
2023-02-06T23:22:12.198Z,-1.16
2023-02-06T23:24:43.187Z,-1.16
2023-02-06T23:27:14.977Z,-1.16
2023-02-06T23:29:42.460Z,-1.15
2023-02-06T23:32:09.751Z,-1.14
2023-02-06T23:34:39.104Z,-1.16
2023-02-06T23:37:08.406Z,-1.17
2023-02-06T23:39:35.289Z,-1.20
2023-02-06T23:42:02.100Z,-1.24
2023-02-06T23:44:28.795Z,-1.27
2023-02-06T23:46:55.627Z,-1.31
2023-02-06T23:49:22.462Z,-1.33
2023-02-06T23:51:51.072Z,-1.36
2023-02-06T23:54:17.821Z,-1.38
2023-02-06T23:56:44.553Z,-1.39
2023-02-06T23:59:12.984Z,-1.40
